Time;durP1;ratioP1;P1;durP2;ratioP2;P2;SDS_P1;SDS_P2;PMS_P1;PMS_P2;Temp;Humidity;BMP_temperature;BMP_pressure;BME280_temperature;BME280_humidity;BME280_pressure;Samples;Min_cycle;Max_cycle;Signal;HPM_P1;HPM_P2
2021/07/11 00:01:02;;;;;;;10.70;9.70;;;;;;;;;;5016249;28;20230;-66
2021/07/11 00:03:27;;;;;;;10.80;9.90;;;;;;;;;;5015603;28;20218;-65
2021/07/11 00:05:52;;;;;;;11.10;10.20;;;;;;;;;;5016245;28;20222;-65
2021/07/11 00:08:18;;;;;;;9.97;9.17;;;;;;;;;;5015906;28;20223;-64
2021/07/11 00:10:43;;;;;;;10.10;9.30;;;;;;;;;;5016023;28;20305;-65
2021/07/11 00:13:08;;;;;;;10.13;9.10;;;;;;;;;;5015736;28;20221;-64
2021/07/11 00:15:33;;;;;;;11.83;10.10;;;;;;;;;;5016121;28;20218;-65
2021/07/11 00:18:01;;;;;;;10.07;9.17;;;;;;;;;;5016144;28;20678;-65
2021/07/11 00:20:27;;;;;;;10.67;9.60;;;;;;;;;;5015201;28;20234;-65
2021/07/11 00:22:52;;;;;;;9.73;9.03;;;;;;;;;;5015879;28;20814;-65
2021/07/11 00:25:17;;;;;;;10.97;10.07;;;;;;;;;;5015298;28;20614;-64
2021/07/11 00:27:44;;;;;;;9.53;8.73;;;;;;;;;;5015688;28;20651;-65
2021/07/11 00:30:10;;;;;;;9.70;8.90;;;;;;;;;;5015275;28;20253;-64
2021/07/11 00:32:36;;;;;;;8.87;8.07;;;;;;;;;;5015670;28;20897;-65
2021/07/11 00:35:02;;;;;;;10.40;9.47;;;;;;;;;;5014932;28;20461;-66
2021/07/11 00:37:28;;;;;;;9.90;9.10;;;;;;;;;;5015098;28;20650;-64
2021/07/11 00:39:53;;;;;;;8.83;8.10;;;;;;;;;;5028599;28;20256;-65
2021/07/11 00:42:18;;;;;;;9.23;8.53;;;;;;;;;;5034895;28;20546;-64
2021/07/11 00:44:43;;;;;;;9.83;8.87;;;;;;;;;;5035331;28;20217;-65
2021/07/11 00:47:10;;;;;;;11.00;9.00;;;;;;;;;;5035262;28;20238;-65
2021/07/11 00:49:35;;;;;;;8.50;7.80;;;;;;;;;;5034873;28;20217;-65
2021/07/11 00:52:01;;;;;;;9.43;8.63;;;;;;;;;;5035077;28;20544;-65
2021/07/11 00:54:26;;;;;;;8.60;7.90;;;;;;;;;;5034696;28;20226;-65
2021/07/11 00:56:51;;;;;;;9.33;8.60;;;;;;;;;;5034908;28;20531;-65
2021/07/11 00:59:20;;;;;;;10.40;9.47;;;;;;;;;;5015594;28;20225;-64
2021/07/11 01:01:51;;;;;;;10.00;9.20;;;;;;;;;;5014080;28;20210;-65
2021/07/11 01:04:28;;;;;;;9.10;8.30;;;;;;;;;;5014656;28;20469;-65
2021/07/11 01:06:55;;;;;;;9.13;8.33;;;;;;;;;;5015023;28;20963;-65
2021/07/11 01:09:26;;;;;;;10.27;9.13;;;;;;;;;;5013506;28;20933;-64
2021/07/11 01:11:58;;;;;;;10.93;10.00;;;;;;;;;;5015045;28;20519;-64
2021/07/11 01:14:27;;;;;;;15.37;13.97;;;;;;;;;;5014059;28;20480;-65
2021/07/11 01:16:52;;;;;;;12.60;11.53;;;;;;;;;;5013930;28;20461;-65
2021/07/11 01:20:01;;;;;;;11.60;9.77;;;;;;;;;;5014051;28;20462;-62
2021/07/11 01:22:29;;;;;;;10.00;9.20;;;;;;;;;;5014824;28;20218;-65
2021/07/11 01:25:00;;;;;;;10.93;9.90;;;;;;;;;;5013763;28;20472;-65
2021/07/11 01:27:28;;;;;;;10.00;9.20;;;;;;;;;;5014259;28;20804;-65
2021/07/11 01:29:53;;;;;;;10.07;9.27;;;;;;;;;;5014553;28;20480;-65
2021/07/11 01:32:19;;;;;;;9.53;8.70;;;;;;;;;;5013414;28;20809;-64
2021/07/11 01:34:44;;;;;;;10.03;9.23;;;;;;;;;;5014710;28;20313;-64
2021/07/11 01:37:10;;;;;;;9.77;8.90;;;;;;;;;;5014645;28;20285;-64
2021/07/11 01:39:35;;;;;;;8.73;8.07;;;;;;;;;;5013089;28;20242;-65
2021/07/11 01:42:01;;;;;;;9.07;7.93;;;;;;;;;;5014571;28;20239;-64
2021/07/11 01:44:27;;;;;;;10.47;9.57;;;;;;;;;;5014221;28;20288;-64
2021/07/11 01:46:53;;;;;;;9.10;8.30;;;;;;;;;;5013538;28;20225;-66
2021/07/11 01:49:19;;;;;;;9.37;8.47;;;;;;;;;;5014077;28;20462;-64
2021/07/11 01:51:46;;;;;;;10.03;9.20;;;;;;;;;;5014394;28;20210;-64
2021/07/11 01:54:12;;;;;;;9.90;9.03;;;;;;;;;;4997486;28;20702;-65
2021/07/11 01:56:39;;;;;;;8.73;7.90;;;;;;;;;;5014142;28;20533;-64
2021/07/11 01:59:04;;;;;;;9.60;8.70;;;;;;;;;;5031510;28;20237;-64
2021/07/11 02:01:29;;;;;;;9.73;8.93;;;;;;;;;;5033500;28;20857;-65
2021/07/11 02:03:55;;;;;;;9.17;8.33;;;;;;;;;;5032902;28;20222;-65
2021/07/11 02:06:20;;;;;;;9.13;8.37;;;;;;;;;;5032596;28;20545;-64
2021/07/11 02:08:45;;;;;;;9.00;8.30;;;;;;;;;;5033956;28;20673;-64
2021/07/11 02:11:13;;;;;;;9.50;8.70;;;;;;;;;;5033948;28;20222;-65
2021/07/11 02:13:51;;;;;;;9.57;8.67;;;;;;;;;;5033396;28;20286;-64
2021/07/11 02:16:43;;;;;;;9.70;8.73;;;;;;;;;;5025145;28;20446;-64
2021/07/11 02:19:08;;;;;;;8.70;8.00;;;;;;;;;;4986209;28;20469;-63
2021/07/11 02:21:34;;;;;;;9.37;8.30;;;;;;;;;;4993209;28;20458;-65
2021/07/11 02:24:03;;;;;;;9.90;9.00;;;;;;;;;;4993420;28;20345;-65
2021/07/11 02:26:29;;;;;;;8.90;8.20;;;;;;;;;;4996377;28;20225;-64
2021/07/11 02:28:55;;;;;;;8.83;7.90;;;;;;;;;;4998236;28;20462;-64
2021/07/11 02:31:20;;;;;;;9.30;8.60;;;;;;;;;;4996985;28;20219;-63
2021/07/11 02:33:46;;;;;;;8.40;7.70;;;;;;;;;;4997583;28;20222;-64
2021/07/11 02:36:17;;;;;;;9.40;8.70;;;;;;;;;;4981411;28;20548;-64
2021/07/11 02:38:56;;;;;;;8.87;8.10;;;;;;;;;;5013039;28;20219;-65
2021/07/11 02:41:22;;;;;;;10.00;8.43;;;;;;;;;;5021308;28;20508;-64
2021/07/11 02:43:50;;;;;;;8.30;7.50;;;;;;;;;;5013304;28;20937;-64
2021/07/11 02:46:23;;;;;;;9.10;8.30;;;;;;;;;;5027636;28;20464;-65
2021/07/11 02:48:48;;;;;;;8.60;7.80;;;;;;;;;;5023750;28;20514;-65
2021/07/11 02:51:22;;;;;;;9.83;9.03;;;;;;;;;;5026131;28;20473;-65
2021/07/11 02:53:47;;;;;;;10.53;9.57;;;;;;;;;;5023544;28;20234;-64
2021/07/11 02:56:17;;;;;;;10.10;9.20;;;;;;;;;;5029344;28;20461;-65
2021/07/11 02:58:43;;;;;;;9.57;8.87;;;;;;;;;;5030899;28;20693;-65
2021/07/11 03:01:09;;;;;;;9.07;8.37;;;;;;;;;;5024576;28;20813;-65
2021/07/11 03:03:35;;;;;;;9.23;8.53;;;;;;;;;;5028847;28;20527;-64
2021/07/11 03:06:00;;;;;;;10.23;9.33;;;;;;;;;;5029626;28;20844;-65
2021/07/11 03:08:26;;;;;;;10.50;9.63;;;;;;;;;;5023074;28;20245;-64
2021/07/11 03:10:52;;;;;;;9.53;8.73;;;;;;;;;;5024426;28;20317;-64
2021/07/11 03:13:17;;;;;;;9.70;8.90;;;;;;;;;;5029416;28;20959;-65
2021/07/11 03:15:43;;;;;;;10.07;9.17;;;;;;;;;;5028835;28;20232;-65
2021/07/11 03:18:08;;;;;;;9.00;8.30;;;;;;;;;;5022417;28;20540;-66
2021/07/11 03:20:35;;;;;;;10.10;9.30;;;;;;;;;;5024459;28;20246;-64
2021/07/11 03:23:01;;;;;;;10.90;9.83;;;;;;;;;;5029148;28;20218;-65
2021/07/11 03:25:26;;;;;;;8.97;8.17;;;;;;;;;;5027929;28;20530;-63
2021/07/11 03:27:52;;;;;;;9.77;8.87;;;;;;;;;;5022010;28;20601;-65
2021/07/11 03:30:20;;;;;;;10.43;9.07;;;;;;;;;;5025460;28;20273;-66
2021/07/11 03:32:51;;;;;;;9.03;8.40;;;;;;;;;;5029349;28;20230;-65
2021/07/11 03:35:18;;;;;;;10.13;9.30;;;;;;;;;;5028003;28;20968;-66
2021/07/11 03:37:46;;;;;;;10.07;9.27;;;;;;;;;;5015251;28;20481;-64
2021/07/11 03:40:16;;;;;;;9.90;8.90;;;;;;;;;;5028743;28;20787;-65
2021/07/11 03:42:42;;;;;;;9.43;8.63;;;;;;;;;;5024394;28;20467;-65
2021/07/11 03:45:10;;;;;;;10.33;9.33;;;;;;;;;;5023042;28;20454;-65
2021/07/11 03:47:45;;;;;;;8.70;7.90;;;;;;;;;;5027137;28;20612;-64
2021/07/11 03:50:11;;;;;;;8.70;8.00;;;;;;;;;;5029490;28;20465;-64
2021/07/11 03:52:45;;;;;;;10.70;9.70;;;;;;;;;;5025202;28;20925;-64
2021/07/11 03:55:11;;;;;;;9.70;8.87;;;;;;;;;;5031874;28;20466;-65
2021/07/11 03:57:36;;;;;;;10.93;9.90;;;;;;;;;;5021475;28;20511;-65
2021/07/11 04:00:05;;;;;;;10.70;9.67;;;;;;;;;;5028401;28;20218;-65
2021/07/11 04:02:32;;;;;;;9.00;8.30;;;;;;;;;;5026008;28;20218;-64
2021/07/11 04:04:59;;;;;;;9.13;8.33;;;;;;;;;;5021506;28;20468;-65
2021/07/11 04:07:25;;;;;;;10.30;9.50;;;;;;;;;;5023677;28;20481;-65
2021/07/11 04:09:52;;;;;;;10.13;9.20;;;;;;;;;;5028759;28;20461;-64
2021/07/11 04:12:17;;;;;;;10.27;9.37;;;;;;;;;;5015587;28;20480;-64
2021/07/11 04:14:43;;;;;;;9.67;8.87;;;;;;;;;;5028866;28;20938;-65
2021/07/11 04:17:09;;;;;;;9.57;8.77;;;;;;;;;;5027163;28;20218;-65
2021/07/11 04:19:39;;;;;;;8.80;8.10;;;;;;;;;;5020668;28;20240;-64
2021/07/11 04:22:06;;;;;;;8.77;8.17;;;;;;;;;;5023710;28;20548;-65
2021/07/11 04:24:35;;;;;;;9.50;8.70;;;;;;;;;;5031795;28;20456;-64
2021/07/11 04:27:01;;;;;;;8.83;8.13;;;;;;;;;;5023123;28;20461;-66
2021/07/11 04:29:29;;;;;;;8.90;8.13;;;;;;;;;;5031158;28;20548;-65
2021/07/11 04:31:54;;;;;;;9.60;8.73;;;;;;;;;;5029950;28;21181;-66
2021/07/11 04:34:27;;;;;;;9.50;8.70;;;;;;;;;;5021873;28;20494;-65
2021/07/11 04:36:55;;;;;;;9.93;8.27;;;;;;;;;;5021637;28;20226;-65
2021/07/11 04:39:21;;;;;;;10.43;9.23;;;;;;;;;;5003527;28;20463;-66
2021/07/11 04:41:46;;;;;;;9.33;8.43;;;;;;;;;;5026915;28;20470;-65
2021/07/11 04:44:12;;;;;;;9.13;8.40;;;;;;;;;;5027057;28;20656;-65
2021/07/11 04:46:37;;;;;;;9.13;8.43;;;;;;;;;;5021360;28;20295;-65
2021/07/11 04:49:04;;;;;;;8.73;8.03;;;;;;;;;;5022850;28;20473;-65
2021/07/11 04:51:30;;;;;;;9.20;8.47;;;;;;;;;;5028690;28;20218;-65
2021/07/11 04:53:56;;;;;;;8.93;8.23;;;;;;;;;;5026213;28;20453;-65
2021/07/11 04:56:21;;;;;;;9.03;8.20;;;;;;;;;;5021752;28;20870;-64
2021/07/11 04:58:47;;;;;;;9.20;8.50;;;;;;;;;;5023464;28;20242;-65
2021/07/11 05:01:12;;;;;;;8.20;7.60;;;;;;;;;;5028007;28;20223;-65
2021/07/11 05:03:37;;;;;;;8.87;8.17;;;;;;;;;;5025595;28;20226;-63
2021/07/11 05:06:03;;;;;;;7.93;7.30;;;;;;;;;;5021276;28;20709;-66
2021/07/11 05:08:28;;;;;;;7.93;7.30;;;;;;;;;;5024012;28;20239;-64
2021/07/11 05:10:53;;;;;;;9.57;8.77;;;;;;;;;;5027869;28;20226;-66
2021/07/11 05:13:18;;;;;;;8.10;7.50;;;;;;;;;;5025374;28;20745;-65
2021/07/11 05:15:44;;;;;;;8.50;7.80;;;;;;;;;;5021052;28;20225;-64
2021/07/11 05:18:09;;;;;;;8.80;8.10;;;;;;;;;;5024407;28;20363;-64
2021/07/11 05:20:34;;;;;;;8.00;7.40;;;;;;;;;;5027390;28;20238;-64
2021/07/11 05:22:59;;;;;;;7.90;7.30;;;;;;;;;;5024656;28;20545;-65
2021/07/11 05:25:25;;;;;;;8.73;8.03;;;;;;;;;;5020927;28;20308;-64
2021/07/11 05:27:50;;;;;;;8.37;7.67;;;;;;;;;;5024294;28;20238;-65
2021/07/11 05:30:16;;;;;;;8.77;8.10;;;;;;;;;;5029897;28;20221;-65
2021/07/11 05:32:41;;;;;;;8.93;7.47;;;;;;;;;;5033837;28;20245;-64
2021/07/11 05:35:07;;;;;;;9.07;8.37;;;;;;;;;;5020967;28;20544;-64
2021/07/11 05:37:32;;;;;;;8.40;7.70;;;;;;;;;;5024630;28;20222;-65
2021/07/11 05:39:58;;;;;;;8.10;7.50;;;;;;;;;;5004708;28;20221;-64
2021/07/11 05:42:23;;;;;;;8.40;7.70;;;;;;;;;;5023793;28;20237;-65
2021/07/11 05:44:48;;;;;;;9.00;8.30;;;;;;;;;;5027178;28;20233;-65
2021/07/11 05:47:14;;;;;;;9.43;8.53;;;;;;;;;;5023415;28;20562;-64
2021/07/11 05:49:39;;;;;;;8.33;7.63;;;;;;;;;;5020259;28;20284;-64
2021/07/11 05:52:05;;;;;;;8.50;7.70;;;;;;;;;;5024182;28;20309;-66
2021/07/11 05:54:30;;;;;;;8.20;7.60;;;;;;;;;;5027345;28;20765;-64
2021/07/11 05:56:55;;;;;;;8.80;8.10;;;;;;;;;;5023707;28;20222;-65
2021/07/11 05:59:20;;;;;;;10.57;9.47;;;;;;;;;;5020550;28;20624;-65
2021/07/11 06:01:46;;;;;;;9.13;8.43;;;;;;;;;;5024072;28;20227;-64
2021/07/11 06:04:11;;;;;;;8.50;7.80;;;;;;;;;;5027186;28;20317;-64
2021/07/11 06:06:36;;;;;;;9.10;8.30;;;;;;;;;;5020477;28;20227;-64
2021/07/11 06:09:01;;;;;;;8.67;8.03;;;;;;;;;;5026960;28;20313;-65
2021/07/11 06:11:27;;;;;;;8.50;7.80;;;;;;;;;;5022951;28;20279;-65
2021/07/11 06:13:52;;;;;;;8.53;7.83;;;;;;;;;;5020155;28;20781;-65
2021/07/11 06:16:17;;;;;;;8.40;7.63;;;;;;;;;;5025152;28;20223;-65
2021/07/11 06:18:42;;;;;;;7.90;7.30;;;;;;;;;;5026630;28;20364;-64
2021/07/11 06:21:08;;;;;;;7.90;7.20;;;;;;;;;;5021928;28;20230;-67
2021/07/11 06:23:33;;;;;;;8.17;7.37;;;;;;;;;;5020491;28;20619;-67
2021/07/11 06:25:58;;;;;;;7.27;6.77;;;;;;;;;;5021519;28;20228;-65
2021/07/11 06:28:23;;;;;;;7.80;7.10;;;;;;;;;;5013227;28;20241;-65
2021/07/11 06:30:49;;;;;;;7.37;6.67;;;;;;;;;;5032188;28;20539;-63
2021/07/11 06:33:15;;;;;;;11.07;10.10;;;;;;;;;;5019960;28;20229;-64
2021/07/11 06:35:40;;;;;;;6.93;6.43;;;;;;;;;;5026194;28;20678;-64
2021/07/11 06:38:05;;;;;;;6.80;6.30;;;;;;;;;;5022669;28;20227;-65
2021/07/11 06:40:31;;;;;;;6.90;6.40;;;;;;;;;;5025423;28;20223;-64
2021/07/11 06:42:56;;;;;;;8.23;7.23;;;;;;;;;;5032924;28;20279;-65
2021/07/11 06:45:21;;;;;;;7.57;6.87;;;;;;;;;;5025413;28;20241;-65
2021/07/11 06:47:47;;;;;;;6.63;6.03;;;;;;;;;;5027550;28;20233;-65
2021/07/11 06:50:14;;;;;;;10.03;6.70;;;;;;;;;;5025676;28;20288;-64
2021/07/11 06:52:39;;;;;;;9.40;6.67;;;;;;;;;;5026651;28;20232;-63
2021/07/11 06:55:07;;;;;;;8.50;7.70;;;;;;;;;;5021442;28;20468;-67
2021/07/11 06:57:33;;;;;;;5.83;5.33;;;;;;;;;;5031906;28;20240;-65
2021/07/11 06:59:59;;;;;;;8.23;7.50;;;;;;;;;;5020753;28;20460;-64
2021/07/11 07:02:24;;;;;;;8.40;7.50;;;;;;;;;;5020139;28;20265;-65
2021/07/11 07:04:49;;;;;;;8.60;7.90;;;;;;;;;;5024377;28;20803;-64
2021/07/11 07:07:15;;;;;;;6.60;6.00;;;;;;;;;;5027639;28;20238;-65
2021/07/11 07:09:40;;;;;;;7.07;6.47;;;;;;;;;;5025224;28;20222;-64
2021/07/11 07:12:06;;;;;;;6.33;5.80;;;;;;;;;;5027519;28;20222;-65
2021/07/11 07:14:31;;;;;;;6.23;5.73;;;;;;;;;;5029557;28;20607;-65
2021/07/11 07:16:56;;;;;;;7.17;6.60;;;;;;;;;;5029874;28;20232;-65
2021/07/11 07:19:22;;;;;;;6.17;5.57;;;;;;;;;;5023829;28;20234;-65
2021/07/11 07:21:47;;;;;;;5.73;5.27;;;;;;;;;;5022988;28;20222;-64
2021/07/11 07:24:12;;;;;;;6.63;6.00;;;;;;;;;;5028987;28;20218;-64
2021/07/11 07:26:37;;;;;;;6.53;6.03;;;;;;;;;;5030107;28;20371;-65
2021/07/11 07:29:03;;;;;;;5.73;5.23;;;;;;;;;;5018029;28;20227;-65
2021/07/11 07:31:28;;;;;;;5.33;4.50;;;;;;;;;;5016861;28;20222;-65
2021/07/11 07:33:54;;;;;;;5.17;4.73;;;;;;;;;;5029691;28;20228;-65
2021/07/11 07:36:19;;;;;;;4.60;4.20;;;;;;;;;;5029353;28;20553;-65
2021/07/11 07:38:44;;;;;;;5.37;4.87;;;;;;;;;;5010134;28;20554;-64
2021/07/11 07:41:09;;;;;;;5.57;5.10;;;;;;;;;;5027716;28;20217;-65
2021/07/11 07:43:35;;;;;;;4.67;4.23;;;;;;;;;;5023480;28;20233;-66
2021/07/11 07:46:00;;;;;;;5.17;4.77;;;;;;;;;;5022367;28;20256;-65
2021/07/11 07:48:25;;;;;;;6.30;3.90;;;;;;;;;;5029528;28;20249;-64
2021/07/11 07:50:51;;;;;;;4.10;3.70;;;;;;;;;;5028856;28;20222;-64
2021/07/11 07:53:16;;;;;;;4.20;3.90;;;;;;;;;;5022763;28;20218;-65
2021/07/11 07:55:42;;;;;;;4.70;4.40;;;;;;;;;;5022884;28;20229;-63
2021/07/11 07:58:07;;;;;;;4.00;3.70;;;;;;;;;;5029502;28;20225;-64
2021/07/11 08:00:32;;;;;;;4.70;4.30;;;;;;;;;;5028917;28;20304;-65
2021/07/11 08:02:59;;;;;;;3.63;3.33;;;;;;;;;;5022081;28;20305;-65
2021/07/11 08:05:25;;;;;;;5.00;4.50;;;;;;;;;;5023242;28;20364;-65
2021/07/11 08:07:50;;;;;;;4.47;4.07;;;;;;;;;;5028924;28;20860;-64
2021/07/11 08:10:15;;;;;;;5.43;4.93;;;;;;;;;;5028380;28;20222;-65
2021/07/11 08:12:42;;;;;;;5.33;4.83;;;;;;;;;;5022687;28;20226;-65
2021/07/11 08:15:08;;;;;;;6.40;4.80;;;;;;;;;;5026725;28;20684;-64
2021/07/11 08:17:34;;;;;;;4.50;4.20;;;;;;;;;;5029257;28;20543;-65
2021/07/11 08:20:00;;;;;;;4.50;4.10;;;;;;;;;;5028180;28;20472;-65
2021/07/11 08:22:26;;;;;;;5.23;4.77;;;;;;;;;;5022253;28;20599;-64
2021/07/11 08:24:51;;;;;;;4.93;4.53;;;;;;;;;;5022620;28;20852;-64
2021/07/11 08:27:16;;;;;;;4.70;4.30;;;;;;;;;;5028051;28;20313;-65
2021/07/11 08:29:41;;;;;;;4.20;3.80;;;;;;;;;;5027983;28;20232;-65
2021/07/11 08:32:07;;;;;;;5.23;4.67;;;;;;;;;;5035015;28;20649;-65
2021/07/11 08:34:32;;;;;;;5.43;4.70;;;;;;;;;;5023525;28;20225;-65
2021/07/11 08:36:59;;;;;;;5.87;5.37;;;;;;;;;;5028202;28;20361;-64
2021/07/11 08:39:26;;;;;;;5.87;5.13;;;;;;;;;;5004151;28;20315;-64
2021/07/11 08:41:51;;;;;;;8.60;6.87;;;;;;;;;;5028379;28;20948;-64
2021/07/11 08:44:17;;;;;;;5.10;4.60;;;;;;;;;;5028805;28;20464;-65
2021/07/11 08:46:43;;;;;;;5.30;4.40;;;;;;;;;;5021644;28;20237;-65
2021/07/11 08:49:08;;;;;;;9.03;6.37;;;;;;;;;;5022399;28;20562;-66
2021/07/11 08:51:33;;;;;;;4.70;4.33;;;;;;;;;;5028521;28;20540;-65
2021/07/11 08:54:00;;;;;;;5.40;4.90;;;;;;;;;;5026996;28;20248;-64
2021/07/11 08:56:25;;;;;;;4.40;4.00;;;;;;;;;;5020776;28;20237;-65
2021/07/11 08:58:55;;;;;;;3.77;3.57;;;;;;;;;;5022600;28;20466;-64
2021/07/11 09:01:24;;;;;;;6.47;5.87;;;;;;;;;;5028258;28;20226;-65
2021/07/11 09:04:09;;;;;;;4.20;3.80;;;;;;;;;;5027547;28;20460;-65
2021/07/11 09:06:45;;;;;;;4.57;4.17;;;;;;;;;;5011861;28;20528;-65
2021/07/11 09:09:14;;;;;;;4.57;4.13;;;;;;;;;;5020115;28;20460;-66
2021/07/11 09:11:57;;;;;;;5.30;4.80;;;;;;;;;;5024109;28;20466;-65
2021/07/11 09:14:25;;;;;;;5.17;4.47;;;;;;;;;;5028049;28;20468;-65
2021/07/11 09:16:53;;;;;;;4.27;3.97;;;;;;;;;;5027088;28;20587;-65
2021/07/11 09:19:34;;;;;;;4.73;4.33;;;;;;;;;;5015447;28;20461;-65
2021/07/11 09:22:11;;;;;;;5.60;5.10;;;;;;;;;;5017238;28;20450;-65
2021/07/11 09:24:38;;;;;;;5.20;4.80;;;;;;;;;;5024032;28;20454;-64
2021/07/11 09:27:18;;;;;;;4.40;4.10;;;;;;;;;;5027993;28;20458;-64
2021/07/11 09:29:43;;;;;;;5.50;5.10;;;;;;;;;;5026196;28;20487;-64
2021/07/11 09:32:27;;;;;;;5.07;4.77;;;;;;;;;;5021053;28;20456;-65
2021/07/11 09:34:54;;;;;;;4.70;4.30;;;;;;;;;;5020670;28;20230;-65
2021/07/11 09:37:19;;;;;;;5.40;4.90;;;;;;;;;;5026355;28;20520;-65
2021/07/11 09:39:51;;;;;;;4.70;4.30;;;;;;;;;;5015893;28;20961;-65
2021/07/11 09:42:27;;;;;;;5.57;5.07;;;;;;;;;;5023721;28;20298;-65
2021/07/11 09:44:53;;;;;;;5.10;4.50;;;;;;;;;;5027469;28;20480;-65
2021/07/11 09:47:20;;;;;;;5.87;5.37;;;;;;;;;;5024737;28;20457;-66
2021/07/11 09:50:06;;;;;;;5.50;5.10;;;;;;;;;;5020062;28;20232;-64
2021/07/11 09:52:32;;;;;;;6.50;5.93;;;;;;;;;;5020791;28;20472;-64
2021/07/11 09:55:00;;;;;;;5.57;5.07;;;;;;;;;;5026585;28;20494;-65
2021/07/11 09:57:30;;;;;;;6.40;5.90;;;;;;;;;;5027450;28;20514;-65
2021/07/11 10:00:17;;;;;;;5.43;5.03;;;;;;;;;;5021598;28;20554;-64
2021/07/11 10:02:44;;;;;;;6.30;5.73;;;;;;;;;;5020184;28;20461;-65
2021/07/11 10:05:10;;;;;;;7.00;6.40;;;;;;;;;;5023081;28;20549;-66
2021/07/11 10:07:37;;;;;;;6.50;5.93;;;;;;;;;;5027337;28;20470;-65
2021/07/11 10:10:14;;;;;;;5.10;4.63;;;;;;;;;;5024093;28;20460;-65
2021/07/11 10:12:39;;;;;;;5.50;5.10;;;;;;;;;;5015014;28;20567;-64
2021/07/11 10:15:12;;;;;;;4.97;4.50;;;;;;;;;;5025537;28;20488;-65
2021/07/11 10:18:00;;;;;;;4.50;4.20;;;;;;;;;;5020523;28;20224;-65
2021/07/11 10:20:34;;;;;;;5.67;5.17;;;;;;;;;;5032130;28;20479;-65
2021/07/11 10:23:00;;;;;;;6.40;4.50;;;;;;;;;;5013365;28;20471;-65
2021/07/11 10:25:26;;;;;;;5.33;4.80;;;;;;;;;;5019673;28;21007;-64
2021/07/11 10:28:10;;;;;;;5.03;4.53;;;;;;;;;;5023899;28;20536;-65
2021/07/11 10:30:41;;;;;;;7.37;5.47;;;;;;;;;;5026452;28;20461;-65
2021/07/11 10:33:16;;;;;;;4.77;4.30;;;;;;;;;;5014206;28;20765;-65
2021/07/11 10:36:08;;;;;;;4.47;4.10;;;;;;;;;;5008947;28;20460;-65
2021/07/11 10:38:39;;;;;;;5.20;4.80;;;;;;;;;;5012443;28;20468;-65
2021/07/11 10:41:15;;;;;;;4.27;3.97;;;;;;;;;;5026748;28;20471;-65
2021/07/11 10:43:42;;;;;;;4.93;4.50;;;;;;;;;;5008988;28;20475;-64
2021/07/11 10:46:07;;;;;;;4.83;4.43;;;;;;;;;;5019999;28;20461;-65
2021/07/11 10:48:33;;;;;;;5.03;4.63;;;;;;;;;;5027811;28;20470;-65
2021/07/11 10:50:58;;;;;;;4.83;4.43;;;;;;;;;;5030722;28;20227;-65
2021/07/11 10:53:29;;;;;;;4.97;4.57;;;;;;;;;;5024454;28;20272;-64
2021/07/11 10:55:55;;;;;;;4.90;4.50;;;;;;;;;;5024057;28;20214;-65
2021/07/11 10:58:20;;;;;;;4.90;4.50;;;;;;;;;;5029449;28;20462;-64
2021/07/11 11:00:46;;;;;;;4.20;3.90;;;;;;;;;;5018073;28;20226;-65
2021/07/11 11:03:19;;;;;;;4.30;3.90;;;;;;;;;;5029413;28;20207;-65
2021/07/11 11:05:45;;;;;;;4.87;4.47;;;;;;;;;;5018698;28;20450;-65
2021/07/11 11:08:16;;;;;;;4.47;4.17;;;;;;;;;;5028370;28;20481;-65
2021/07/11 11:10:42;;;;;;;6.47;4.30;;;;;;;;;;5030465;28;20452;-65
2021/07/11 11:13:19;;;;;;;4.57;3.60;;;;;;;;;;5027642;28;20877;-65
2021/07/11 11:15:47;;;;;;;5.00;4.60;;;;;;;;;;5031946;28;20555;-66
2021/07/11 11:18:23;;;;;;;4.87;4.20;;;;;;;;;;5025843;28;20537;-65
2021/07/11 11:21:03;;;;;;;4.20;3.90;;;;;;;;;;5029899;28;20453;-65
2021/07/11 11:23:34;;;;;;;4.67;4.27;;;;;;;;;;5029932;28;20460;-65
2021/07/11 11:26:00;;;;;;;4.50;4.10;;;;;;;;;;5025119;28;20476;-65
2021/07/11 11:28:45;;;;;;;4.13;3.83;;;;;;;;;;5022906;28;20503;-64
2021/07/11 11:31:18;;;;;;;4.70;4.30;;;;;;;;;;5025293;28;20238;-65
2021/07/11 11:33:57;;;;;;;4.63;4.23;;;;;;;;;;5026638;28;20531;-65
2021/07/11 11:36:35;;;;;;;4.20;3.90;;;;;;;;;;5020876;28;20459;-66
2021/07/11 11:39:23;;;;;;;4.53;4.13;;;;;;;;;;5020873;28;20788;-65
2021/07/11 11:41:48;;;;;;;4.67;3.67;;;;;;;;;;5029594;28;20461;-65
2021/07/11 11:44:20;;;;;;;4.10;3.80;;;;;;;;;;5013659;28;20488;-65
2021/07/11 11:46:48;;;;;;;3.53;3.23;;;;;;;;;;5025375;28;20301;-65
2021/07/11 11:49:15;;;;;;;3.53;3.30;;;;;;;;;;5022353;28;20457;-66
2021/07/11 11:51:51;;;;;;;3.87;3.57;;;;;;;;;;5029885;28;20461;-67
2021/07/11 11:54:30;;;;;;;3.80;3.53;;;;;;;;;;5029509;28;20534;-66
2021/07/11 11:56:56;;;;;;;4.07;3.70;;;;;;;;;;5026306;28;20460;-65
2021/07/11 11:59:21;;;;;;;4.33;3.93;;;;;;;;;;5036092;28;20464;-66
2021/07/11 12:01:47;;;;;;;4.40;4.10;;;;;;;;;;5028494;28;20226;-66
2021/07/11 12:04:14;;;;;;;4.40;3.90;;;;;;;;;;5032227;28;20240;-66
2021/07/11 12:06:41;;;;;;;4.17;3.77;;;;;;;;;;5029825;28;20233;-66
2021/07/11 12:09:08;;;;;;;4.40;3.20;;;;;;;;;;5029335;28;20460;-66
2021/07/11 12:11:33;;;;;;;3.60;3.30;;;;;;;;;;5024760;28;20847;-67
2021/07/11 12:14:25;;;;;;;4.27;3.87;;;;;;;;;;5024570;28;20465;-65
2021/07/11 12:16:59;;;;;;;3.77;3.40;;;;;;;;;;5023629;28;20226;-67
2021/07/11 12:19:24;;;;;;;4.70;3.93;;;;;;;;;;5029506;28;20538;-66
2021/07/11 12:21:52;;;;;;;5.93;5.53;;;;;;;;;;5029369;28;20456;-66
2021/07/11 12:24:19;;;;;;;6.47;5.93;;;;;;;;;;5031720;28;20218;-66
2021/07/11 12:27:00;;;;;;;4.23;3.93;;;;;;;;;;5031539;28;20779;-58
2021/07/11 12:29:31;;;;;;;3.50;3.30;;;;;;;;;;5025073;28;20986;-59
2021/07/11 12:31:57;;;;;;;4.80;4.40;;;;;;;;;;5026614;28;20968;-58
2021/07/11 12:34:24;;;;;;;5.65;5.15;;;;;;;;;;5032668;28;20221;-58
2021/07/11 12:36:55;;;;;;;4.10;3.80;;;;;;;;;;5033048;28;20217;-58
2021/07/11 12:39:22;;;;;;;3.40;3.10;;;;;;;;;;5019761;28;20685;-58
2021/07/11 12:41:47;;;;;;;4.00;3.70;;;;;;;;;;5033836;28;20231;-57
2021/07/11 12:44:14;;;;;;;3.70;3.40;;;;;;;;;;5033335;28;20213;-58
2021/07/11 12:46:40;;;;;;;7.30;3.53;;;;;;;;;;5026586;28;20224;-57
2021/07/11 12:49:11;;;;;;;4.40;4.10;;;;;;;;;;5027083;28;20669;-59
2021/07/11 12:51:39;;;;;;;4.07;3.67;;;;;;;;;;5032618;28;20225;-58
2021/07/11 12:54:14;;;;;;;5.87;4.50;;;;;;;;;;5031748;28;20848;-59
2021/07/11 12:56:54;;;;;;;5.00;4.37;;;;;;;;;;5013979;28;20573;-57
2021/07/11 12:59:35;;;;;;;4.37;4.07;;;;;;;;;;5021520;28;20948;-57
2021/07/11 13:02:04;;;;;;;4.47;4.10;;;;;;;;;;5029376;28;20472;-57
2021/07/11 13:04:29;;;;;;;4.37;3.97;;;;;;;;;;5023895;28;20526;-58
2021/07/11 13:07:06;;;;;;;3.87;3.60;;;;;;;;;;5025107;28;20937;-58
2021/07/11 13:09:32;;;;;;;4.00;3.70;;;;;;;;;;5028856;28;20656;-58
2021/07/11 13:11:57;;;;;;;3.70;3.47;;;;;;;;;;5029025;28;20477;-57
2021/07/11 13:14:23;;;;;;;3.70;3.20;;;;;;;;;;5022507;28;20515;-58
2021/07/11 13:16:48;;;;;;;3.90;3.60;;;;;;;;;;5024408;28;20230;-57
2021/07/11 13:19:14;;;;;;;4.07;3.67;;;;;;;;;;5030325;28;20238;-58
2021/07/11 13:21:39;;;;;;;4.30;4.00;;;;;;;;;;5016859;28;20646;-58
2021/07/11 13:24:04;;;;;;;3.60;3.30;;;;;;;;;;5030080;28;20300;-58
2021/07/11 13:26:29;;;;;;;3.67;3.37;;;;;;;;;;5022201;28;20622;-58
2021/07/11 13:28:55;;;;;;;3.33;3.13;;;;;;;;;;5029013;28;20233;-58
2021/07/11 13:31:27;;;;;;;3.70;3.40;;;;;;;;;;5023925;28;20316;-58
2021/07/11 13:33:52;;;;;;;3.30;3.10;;;;;;;;;;5028553;28;20304;-58
2021/07/11 13:36:17;;;;;;;6.27;3.20;;;;;;;;;;5027218;28;20460;-58
2021/07/11 13:38:42;;;;;;;4.13;3.80;;;;;;;;;;5014845;28;20312;-58
2021/07/11 13:41:08;;;;;;;5.23;3.97;;;;;;;;;;5027619;28;20218;-58
2021/07/11 13:43:33;;;;;;;3.70;3.50;;;;;;;;;;5021731;28;20884;-58
2021/07/11 13:45:58;;;;;;;3.63;3.33;;;;;;;;;;5022767;28;20218;-58
2021/07/11 13:48:23;;;;;;;4.17;3.87;;;;;;;;;;5029178;28;20686;-58
2021/07/11 13:50:49;;;;;;;5.13;4.63;;;;;;;;;;5029389;28;20229;-58
2021/07/11 13:53:14;;;;;;;4.70;4.40;;;;;;;;;;5022439;28;20218;-60
2021/07/11 13:55:39;;;;;;;3.97;3.60;;;;;;;;;;5023425;28;20227;-58
2021/07/11 13:58:06;;;;;;;3.87;3.57;;;;;;;;;;5029470;28;20215;-58
2021/07/11 14:00:31;;;;;;;3.37;3.07;;;;;;;;;;5030087;28;20230;-58
2021/07/11 14:02:57;;;;;;;3.83;3.43;;;;;;;;;;5022414;28;20468;-58
2021/07/11 14:05:22;;;;;;;5.93;3.10;;;;;;;;;;5023021;28;20421;-58
2021/07/11 14:07:47;;;;;;;3.83;3.53;;;;;;;;;;5028887;28;20230;-59
2021/07/11 14:10:13;;;;;;;3.90;3.60;;;;;;;;;;5026846;28;20295;-59
2021/07/11 14:12:38;;;;;;;3.50;3.20;;;;;;;;;;5021560;28;20245;-58
2021/07/11 14:15:05;;;;;;;3.50;3.30;;;;;;;;;;5024523;28;20566;-59
2021/07/11 14:17:30;;;;;;;6.67;4.43;;;;;;;;;;5028897;28;20252;-58
2021/07/11 14:19:56;;;;;;;4.67;4.20;;;;;;;;;;5027348;28;20535;-57
2021/07/11 14:22:21;;;;;;;4.10;3.80;;;;;;;;;;5024928;28;20336;-57
2021/07/11 14:24:47;;;;;;;3.70;3.40;;;;;;;;;;5028064;28;20237;-58
2021/07/11 14:27:13;;;;;;;4.20;3.70;;;;;;;;;;5033063;28;20222;-59
2021/07/11 14:29:38;;;;;;;4.43;3.93;;;;;;;;;;5030694;28;20825;-57
2021/07/11 14:32:04;;;;;;;4.10;3.80;;;;;;;;;;5026602;28;20222;-59
2021/07/11 14:34:29;;;;;;;4.17;3.77;;;;;;;;;;5028988;28;20297;-57
2021/07/11 14:36:54;;;;;;;4.03;3.73;;;;;;;;;;5033428;28;20214;-59
2021/07/11 14:39:20;;;;;;;4.73;4.40;;;;;;;;;;5017378;28;20225;-58
2021/07/11 14:41:45;;;;;;;4.63;4.33;;;;;;;;;;5031433;28;20685;-58
2021/07/11 14:44:10;;;;;;;4.53;4.20;;;;;;;;;;5029740;28;20226;-58